KACK

Nantucket Memorial Airport

Airport
ICAO code
KACK
IATA Code
ACK
Summary
ICAO Region
NAM
ICAO Territory
Location

Nantucket, Massachusetts,

Serving
Nantucket
Elevation
48 ft
Coordinates
41° 15' 34" N , 70° 3' 54" W
KCC
Airport BS
Bird Strike
Airport WX
Cumulonimbus
Metar
KACK 160653Z AUTO 03005KT 8SM RA BKN060 OVC080 09/08 A2996 RMK AO2 LTG DSNT NW SLP144 P0003 T00940078

Description

Nantucket Memorial Airport is a public airport located on the south side of the island of Nantucket 5 km southeast of the town of Nantucket, Massachusetts.

Climatology

Humid continental climate with a strong maritime influence (Köppen climate classification Dfb/Cfb) Precipitation amounts are fairly consistent from month to month regardless of the time of year. Due to the strong oceanic influence, summers on Natucket are cooler and winters are warmer than on the mainland.

Airport map

Aerial View

SKYbrary Partners:

Safety knowledge contributed by: